sensor_id;sensor_type;location;lat;lon;timestamp;pressure;altitude;pressure_sealevel;temperature;humidity
30714;BME280;17465;47.934;33.430;2022-10-16T00:01:49;125101.11;;;-140.43;62.76
30714;BME280;17465;47.934;33.430;2022-10-16T00:04:20;125101.11;;;-140.43;63.47
30714;BME280;17465;47.934;33.430;2022-10-16T00:06:50;125101.11;;;-140.43;64.42
30714;BME280;17465;47.934;33.430;2022-10-16T00:09:21;125101.11;;;-140.43;64.69
30714;BME280;17465;47.934;33.430;2022-10-16T00:11:51;125101.11;;;-140.43;64.24
30714;BME280;17465;47.934;33.430;2022-10-16T00:14:22;125101.11;;;-140.43;64.40
30714;BME280;17465;47.934;33.430;2022-10-16T00:16:53;125101.11;;;-140.43;64.51
30714;BME280;17465;47.934;33.430;2022-10-16T00:19:23;125101.11;;;-140.43;64.56
30714;BME280;17465;47.934;33.430;2022-10-16T00:21:53;125101.11;;;-140.43;64.94
30714;BME280;17465;47.934;33.430;2022-10-16T00:24:24;125101.11;;;-140.43;64.94
30714;BME280;17465;47.934;33.430;2022-10-16T00:26:54;125101.11;;;-140.43;64.66
30714;BME280;17465;47.934;33.430;2022-10-16T00:29:24;125101.11;;;-140.43;65.04
30714;BME280;17465;47.934;33.430;2022-10-16T00:31:55;125101.11;;;-140.43;64.31
30714;BME280;17465;47.934;33.430;2022-10-16T00:34:27;125101.11;;;-140.43;64.15
30714;BME280;17465;47.934;33.430;2022-10-16T00:36:58;125101.11;;;-140.43;64.41
30714;BME280;17465;47.934;33.430;2022-10-16T00:39:28;125101.11;;;-140.43;64.38
30714;BME280;17465;47.934;33.430;2022-10-16T00:41:59;125101.11;;;-140.43;64.81
30714;BME280;17465;47.934;33.430;2022-10-16T00:44:55;125101.11;;;-140.43;64.81
30714;BME280;17465;47.934;33.430;2022-10-16T00:47:34;125101.11;;;-140.43;64.72
30714;BME280;17465;47.934;33.430;2022-10-16T00:50:13;125101.11;;;-140.43;64.30
30714;BME280;17465;47.934;33.430;2022-10-16T00:52:46;125101.11;;;-140.43;64.68
30714;BME280;17465;47.934;33.430;2022-10-16T00:55:17;125101.11;;;-140.43;64.49
30714;BME280;17465;47.934;33.430;2022-10-16T00:57:48;125101.11;;;-140.43;64.49
30714;BME280;17465;47.934;33.430;2022-10-16T01:00:22;125101.11;;;-140.43;64.23
30714;BME280;17465;47.934;33.430;2022-10-16T01:02:54;125101.11;;;-140.43;64.10
30714;BME280;17465;47.934;33.430;2022-10-16T01:08:18;125101.11;;;-140.43;64.96
30714;BME280;17465;47.934;33.430;2022-10-16T01:11:10;125101.11;;;-140.43;64.41
30714;BME280;17465;47.934;33.430;2022-10-16T01:13:38;125101.11;;;-140.43;64.81
30714;BME280;17465;47.934;33.430;2022-10-16T01:22:01;125101.11;;;-140.43;65.94
30714;BME280;17465;47.934;33.430;2022-10-16T01:24:40;125101.11;;;-140.43;65.21
30714;BME280;17465;47.934;33.430;2022-10-16T01:27:21;125101.11;;;-140.43;65.79
30714;BME280;17465;47.934;33.430;2022-10-16T01:32:40;125101.11;;;-140.43;65.11
30714;BME280;17465;47.934;33.430;2022-10-16T01:35:32;125101.11;;;-140.43;66.12
30714;BME280;17465;47.934;33.430;2022-10-16T01:38:10;125101.11;;;-140.43;65.84
30714;BME280;17465;47.934;33.430;2022-10-16T01:46:24;125101.11;;;-140.43;65.43
30714;BME280;17465;47.934;33.430;2022-10-16T01:48:56;125101.11;;;-140.43;65.05
30714;BME280;17465;47.934;33.430;2022-10-16T01:51:29;125101.11;;;-140.43;65.38
30714;BME280;17465;47.934;33.430;2022-10-16T01:54:01;125101.11;;;-140.43;65.38
30714;BME280;17465;47.934;33.430;2022-10-16T01:56:33;125101.11;;;-140.43;65.72
30714;BME280;17465;47.934;33.430;2022-10-16T01:59:13;125101.11;;;-140.43;66.35
30714;BME280;17465;47.934;33.430;2022-10-16T02:05:09;125101.11;;;-140.43;66.18
30714;BME280;17465;47.934;33.430;2022-10-16T02:07:43;125101.11;;;-140.43;66.27
30714;BME280;17465;47.934;33.430;2022-10-16T02:10:47;125101.11;;;-140.43;66.33
30714;BME280;17465;47.934;33.430;2022-10-16T02:14:09;125101.11;;;-140.43;66.33
30714;BME280;17465;47.934;33.430;2022-10-16T02:17:17;125101.11;;;-140.43;66.86
30714;BME280;17465;47.934;33.430;2022-10-16T02:19:50;125101.11;;;-140.43;66.65
30714;BME280;17465;47.934;33.430;2022-10-16T02:25:32;125101.11;;;-140.43;66.21
30714;BME280;17465;47.934;33.430;2022-10-16T02:28:13;125101.11;;;-140.43;66.57
30714;BME280;17465;47.934;33.430;2022-10-16T02:30:49;125101.11;;;-140.43;66.60
30714;BME280;17465;47.934;33.430;2022-10-16T02:33:18;125101.11;;;-140.43;66.53
30714;BME280;17465;47.934;33.430;2022-10-16T02:35:51;125101.11;;;-140.43;66.53
30714;BME280;17465;47.934;33.430;2022-10-16T02:38:24;125101.11;;;-140.43;66.95
30714;BME280;17465;47.934;33.430;2022-10-16T02:40:58;125101.11;;;-140.43;66.83
30714;BME280;17465;47.934;33.430;2022-10-16T02:43:28;125101.11;;;-140.43;67.05
30714;BME280;17465;47.934;33.430;2022-10-16T02:45:59;125101.11;;;-140.43;67.05
30714;BME280;17465;47.934;33.430;2022-10-16T02:48:31;125101.11;;;-140.43;66.95
30714;BME280;17465;47.934;33.430;2022-10-16T02:51:01;125101.11;;;-140.43;66.43
30714;BME280;17465;47.934;33.430;2022-10-16T02:53:32;125101.11;;;-140.43;66.50
30714;BME280;17465;47.934;33.430;2022-10-16T02:56:04;125101.11;;;-140.43;66.62
30714;BME280;17465;47.934;33.430;2022-10-16T02:58:34;125101.11;;;-140.43;66.94
30714;BME280;17465;47.934;33.430;2022-10-16T03:01:05;125101.11;;;-140.43;66.79
30714;BME280;17465;47.934;33.430;2022-10-16T03:03:36;125101.11;;;-140.43;66.86
30714;BME280;17465;47.934;33.430;2022-10-16T03:06:06;125101.11;;;-140.43;66.86
30714;BME280;17465;47.934;33.430;2022-10-16T03:08:37;125101.11;;;-140.43;67.20
30714;BME280;17465;47.934;33.430;2022-10-16T03:11:08;125101.11;;;-140.43;67.41
30714;BME280;17465;47.934;33.430;2022-10-16T03:13:39;125101.11;;;-140.43;67.62
30714;BME280;17465;47.934;33.430;2022-10-16T03:16:09;125101.11;;;-140.43;67.21
30714;BME280;17465;47.934;33.430;2022-10-16T03:18:41;125101.11;;;-140.43;67.21
30714;BME280;17465;47.934;33.430;2022-10-16T03:21:12;125101.11;;;-140.43;67.97
30714;BME280;17465;47.934;33.430;2022-10-16T03:23:42;125101.11;;;-140.43;66.71
30714;BME280;17465;47.934;33.430;2022-10-16T03:26:13;125101.11;;;-140.43;67.56
30714;BME280;17465;47.934;33.430;2022-10-16T03:28:45;125101.11;;;-140.43;67.38
30714;BME280;17465;47.934;33.430;2022-10-16T03:31:15;125101.11;;;-140.43;67.28
30714;BME280;17465;47.934;33.430;2022-10-16T03:33:46;125101.11;;;-140.43;67.76
30714;BME280;17465;47.934;33.430;2022-10-16T03:36:17;125101.11;;;-140.43;67.63
30714;BME280;17465;47.934;33.430;2022-10-16T03:38:47;125101.11;;;-140.43;67.63
30714;BME280;17465;47.934;33.430;2022-10-16T03:41:18;125101.11;;;-140.43;67.59
30714;BME280;17465;47.934;33.430;2022-10-16T03:43:48;125101.11;;;-140.43;67.92
30714;BME280;17465;47.934;33.430;2022-10-16T03:46:19;125101.11;;;-140.43;67.70
30714;BME280;17465;47.934;33.430;2022-10-16T03:48:49;125101.11;;;-140.43;67.70
30714;BME280;17465;47.934;33.430;2022-10-16T03:51:19;125101.11;;;-140.43;67.59
30714;BME280;17465;47.934;33.430;2022-10-16T03:53:50;125101.11;;;-140.43;68.29
30714;BME280;17465;47.934;33.430;2022-10-16T03:56:20;125101.11;;;-140.43;68.37
30714;BME280;17465;47.934;33.430;2022-10-16T03:58:50;125101.11;;;-140.43;68.37
30714;BME280;17465;47.934;33.430;2022-10-16T04:01:20;125101.11;;;-140.43;66.66
30714;BME280;17465;47.934;33.430;2022-10-16T04:03:52;125101.11;;;-140.43;66.66
30714;BME280;17465;47.934;33.430;2022-10-16T04:06:23;125101.11;;;-140.43;66.56
30714;BME280;17465;47.934;33.430;2022-10-16T04:08:54;125101.11;;;-140.43;66.52
30714;BME280;17465;47.934;33.430;2022-10-16T04:11:24;125101.11;;;-140.43;66.52
30714;BME280;17465;47.934;33.430;2022-10-16T04:13:56;125101.11;;;-140.43;66.22
30714;BME280;17465;47.934;33.430;2022-10-16T04:16:28;125101.11;;;-140.43;67.21
30714;BME280;17465;47.934;33.430;2022-10-16T04:18:58;125101.11;;;-140.43;66.74
30714;BME280;17465;47.934;33.430;2022-10-16T04:21:29;125101.11;;;-140.43;67.13
30714;BME280;17465;47.934;33.430;2022-10-16T04:24:00;125101.11;;;-140.43;67.13
30714;BME280;17465;47.934;33.430;2022-10-16T04:26:31;125101.11;;;-140.43;66.67
30714;BME280;17465;47.934;33.430;2022-10-16T04:29:01;125101.11;;;-140.43;66.67
30714;BME280;17465;47.934;33.430;2022-10-16T04:31:32;125101.11;;;-140.43;67.12
30714;BME280;17465;47.934;33.430;2022-10-16T04:34:03;125101.11;;;-140.43;67.39
30714;BME280;17465;47.934;33.430;2022-10-16T04:36:34;125101.11;;;-140.43;67.39
30714;BME280;17465;47.934;33.430;2022-10-16T04:39:04;125101.11;;;-140.43;66.57
30714;BME280;17465;47.934;33.430;2022-10-16T04:41:35;125101.11;;;-140.43;66.38
30714;BME280;17465;47.934;33.430;2022-10-16T04:44:06;125101.11;;;-140.43;66.03
30714;BME280;17465;47.934;33.430;2022-10-16T04:46:36;125101.11;;;-140.43;66.03
30714;BME280;17465;47.934;33.430;2022-10-16T04:49:07;125101.11;;;-140.43;67.05
30714;BME280;17465;47.934;33.430;2022-10-16T04:51:38;125101.11;;;-140.43;66.49
30714;BME280;17465;47.934;33.430;2022-10-16T04:54:09;125101.11;;;-140.43;66.47
30714;BME280;17465;47.934;33.430;2022-10-16T04:56:39;125101.11;;;-140.43;66.08
30714;BME280;17465;47.934;33.430;2022-10-16T04:59:10;125101.11;;;-140.43;65.73
30714;BME280;17465;47.934;33.430;2022-10-16T05:01:40;125101.11;;;-140.43;65.73
30714;BME280;17465;47.934;33.430;2022-10-16T05:04:12;125101.11;;;-140.43;65.75
30714;BME280;17465;47.934;33.430;2022-10-16T05:06:43;125101.11;;;-140.43;65.91
30714;BME280;17465;47.934;33.430;2022-10-16T05:09:14;125101.11;;;-140.43;65.91
30714;BME280;17465;47.934;33.430;2022-10-16T05:11:45;125101.11;;;-140.43;65.36
30714;BME280;17465;47.934;33.430;2022-10-16T05:14:15;125101.11;;;-140.43;65.13
30714;BME280;17465;47.934;33.430;2022-10-16T05:16:45;125101.11;;;-140.43;65.13
30714;BME280;17465;47.934;33.430;2022-10-16T05:19:17;125101.11;;;-140.43;65.05
30714;BME280;17465;47.934;33.430;2022-10-16T05:21:49;125101.11;;;-140.43;64.50
30714;BME280;17465;47.934;33.430;2022-10-16T05:24:20;125101.11;;;-140.43;64.50
30714;BME280;17465;47.934;33.430;2022-10-16T05:26:50;125101.11;;;-140.43;65.50
30714;BME280;17465;47.934;33.430;2022-10-16T05:29:21;125101.11;;;-140.43;65.04
30714;BME280;17465;47.934;33.430;2022-10-16T05:31:52;125101.11;;;-140.43;64.76
30714;BME280;17465;47.934;33.430;2022-10-16T05:34:23;125101.11;;;-140.43;64.76
30714;BME280;17465;47.934;33.430;2022-10-16T05:36:53;125101.11;;;-140.43;64.64
30714;BME280;17465;47.934;33.430;2022-10-16T05:39:24;125101.11;;;-140.43;64.43
30714;BME280;17465;47.934;33.430;2022-10-16T05:41:55;125101.11;;;-140.43;63.81
30714;BME280;17465;47.934;33.430;2022-10-16T05:44:27;125101.11;;;-140.43;63.81
30714;BME280;17465;47.934;33.430;2022-10-16T05:46:58;125101.11;;;-140.43;63.89
30714;BME280;17465;47.934;33.430;2022-10-16T05:49:28;125101.11;;;-140.43;63.91
30714;BME280;17465;47.934;33.430;2022-10-16T05:51:59;125101.11;;;-140.43;63.70
30714;BME280;17465;47.934;33.430;2022-10-16T05:54:29;125101.11;;;-140.43;62.93
30714;BME280;17465;47.934;33.430;2022-10-16T05:57:00;125101.11;;;-140.43;63.24
30714;BME280;17465;47.934;33.430;2022-10-16T05:59:30;125101.11;;;-140.43;63.24
30714;BME280;17465;47.934;33.430;2022-10-16T06:02:15;125101.11;;;-140.43;62.54
30714;BME280;17465;47.934;33.430;2022-10-16T06:04:45;125101.11;;;-140.43;62.54
30714;BME280;17465;47.934;33.430;2022-10-16T06:07:17;125101.11;;;-140.43;62.15
30714;BME280;17465;47.934;33.430;2022-10-16T06:09:52;125101.11;;;-140.43;62.15
30714;BME280;17465;47.934;33.430;2022-10-16T06:12:22;125101.11;;;-140.43;61.07
30714;BME280;17465;47.934;33.430;2022-10-16T06:14:53;125101.11;;;-140.43;61.91
30714;BME280;17465;47.934;33.430;2022-10-16T06:17:24;125101.11;;;-140.43;61.57
30714;BME280;17465;47.934;33.430;2022-10-16T06:19:56;125101.11;;;-140.43;60.72
30714;BME280;17465;47.934;33.430;2022-10-16T06:22:26;125101.11;;;-140.43;59.78
30714;BME280;17465;47.934;33.430;2022-10-16T06:24:57;125101.11;;;-140.43;59.37
30714;BME280;17465;47.934;33.430;2022-10-16T06:27:27;125101.11;;;-140.43;56.78
30714;BME280;17465;47.934;33.430;2022-10-16T06:29:59;125101.11;;;-140.43;52.07
30714;BME280;17465;47.934;33.430;2022-10-16T06:32:29;125101.11;;;-140.43;49.24
30714;BME280;17465;47.934;33.430;2022-10-16T06:35:00;125101.11;;;-140.43;47.78
30714;BME280;17465;47.934;33.430;2022-10-16T06:37:31;125101.11;;;-140.43;43.23
30714;BME280;17465;47.934;33.430;2022-10-16T06:40:02;125101.11;;;-140.43;43.23
30714;BME280;17465;47.934;33.430;2022-10-16T06:42:32;125101.11;;;-140.43;42.35
30714;BME280;17465;47.934;33.430;2022-10-16T06:45:03;125101.11;;;-140.43;42.97
30714;BME280;17465;47.934;33.430;2022-10-16T06:47:35;125101.11;;;-140.43;41.17
30714;BME280;17465;47.934;33.430;2022-10-16T06:50:06;125101.11;;;-140.43;41.17
30714;BME280;17465;47.934;33.430;2022-10-16T06:52:37;125101.11;;;-140.43;42.26
30714;BME280;17465;47.934;33.430;2022-10-16T06:55:07;125101.11;;;-140.43;42.40
30714;BME280;17465;47.934;33.430;2022-10-16T06:57:38;125101.11;;;-140.43;40.58
30714;BME280;17465;47.934;33.430;2022-10-16T07:00:11;125101.11;;;-140.43;40.58
30714;BME280;17465;47.934;33.430;2022-10-16T07:02:42;125101.11;;;-140.43;42.46
30714;BME280;17465;47.934;33.430;2022-10-16T07:05:12;125101.11;;;-140.43;42.32
30714;BME280;17465;47.934;33.430;2022-10-16T07:07:43;125101.11;;;-140.43;43.27
30714;BME280;17465;47.934;33.430;2022-10-16T07:10:15;125101.11;;;-140.43;41.03
30714;BME280;17465;47.934;33.430;2022-10-16T07:12:46;125101.11;;;-140.43;41.42
30714;BME280;17465;47.934;33.430;2022-10-16T07:15:17;125101.11;;;-140.43;43.14
30714;BME280;17465;47.934;33.430;2022-10-16T07:18:10;125101.11;;;-140.43;39.78
30714;BME280;17465;47.934;33.430;2022-10-16T07:20:30;125101.11;;;-140.43;39.94
30714;BME280;17465;47.934;33.430;2022-10-16T07:23:01;125101.11;;;-140.43;40.83
30714;BME280;17465;47.934;33.430;2022-10-16T07:25:31;125101.11;;;-140.43;40.21
30714;BME280;17465;47.934;33.430;2022-10-16T07:28:02;125101.11;;;-140.43;40.54
30714;BME280;17465;47.934;33.430;2022-10-16T07:30:35;125101.11;;;-140.43;42.62
30714;BME280;17465;47.934;33.430;2022-10-16T07:33:09;125101.11;;;-140.43;41.14
30714;BME280;17465;47.934;33.430;2022-10-16T07:35:38;125101.11;;;-140.43;39.86
30714;BME280;17465;47.934;33.430;2022-10-16T07:38:11;125101.11;;;-140.43;40.88
30714;BME280;17465;47.934;33.430;2022-10-16T07:40:42;125101.11;;;-140.43;40.08
30714;BME280;17465;47.934;33.430;2022-10-16T07:43:16;125101.11;;;-140.43;38.25
30714;BME280;17465;47.934;33.430;2022-10-16T07:45:48;125101.11;;;-140.43;38.25
30714;BME280;17465;47.934;33.430;2022-10-16T07:48:21;125101.11;;;-140.43;37.81
30714;BME280;17465;47.934;33.430;2022-10-16T07:50:52;125101.11;;;-140.43;37.81
30714;BME280;17465;47.934;33.430;2022-10-16T07:53:22;125101.11;;;-140.43;35.36
30714;BME280;17465;47.934;33.430;2022-10-16T07:56:08;125101.11;;;-140.43;35.36
30714;BME280;17465;47.934;33.430;2022-10-16T07:58:36;125101.11;;;-140.43;33.93
30714;BME280;17465;47.934;33.430;2022-10-16T08:01:12;125101.11;;;-140.43;32.95
30714;BME280;17465;47.934;33.430;2022-10-16T08:03:49;125101.11;;;-140.43;32.81
30714;BME280;17465;47.934;33.430;2022-10-16T08:06:22;125101.11;;;-140.43;32.81
30714;BME280;17465;47.934;33.430;2022-10-16T08:08:55;125101.11;;;-140.43;32.02
30714;BME280;17465;47.934;33.430;2022-10-16T08:11:26;125101.11;;;-140.43;32.02
30714;BME280;17465;47.934;33.430;2022-10-16T08:13:58;125101.11;;;-140.43;31.61
30714;BME280;17465;47.934;33.430;2022-10-16T08:16:28;125101.11;;;-140.43;31.61
30714;BME280;17465;47.934;33.430;2022-10-16T08:18:59;125101.11;;;-140.43;30.82
30714;BME280;17465;47.934;33.430;2022-10-16T08:21:29;125101.11;;;-140.43;30.82
30714;BME280;17465;47.934;33.430;2022-10-16T08:23:59;125101.11;;;-140.43;29.94
30714;BME280;17465;47.934;33.430;2022-10-16T08:26:32;125101.11;;;-140.43;30.42
30714;BME280;17465;47.934;33.430;2022-10-16T08:29:03;125101.11;;;-140.43;30.42
30714;BME280;17465;47.934;33.430;2022-10-16T08:31:34;125101.11;;;-140.43;31.22
30714;BME280;17465;47.934;33.430;2022-10-16T08:34:05;125101.11;;;-140.43;31.61
30714;BME280;17465;47.934;33.430;2022-10-16T08:36:35;125101.11;;;-140.43;30.37
30714;BME280;17465;47.934;33.430;2022-10-16T08:39:07;125101.11;;;-140.43;29.78
30714;BME280;17465;47.934;33.430;2022-10-16T08:42:00;125101.11;;;-140.43;29.78
30714;BME280;17465;47.934;33.430;2022-10-16T08:47:53;125101.11;;;-140.43;28.62
30714;BME280;17465;47.934;33.430;2022-10-16T08:50:32;125101.11;;;-140.43;30.32
30714;BME280;17465;47.934;33.430;2022-10-16T08:52:58;125101.11;;;-140.43;30.32
30714;BME280;17465;47.934;33.430;2022-10-16T08:55:38;125101.11;;;-140.43;30.57
30714;BME280;17465;47.934;33.430;2022-10-16T08:58:15;125101.11;;;-140.43;30.57
30714;BME280;17465;47.934;33.430;2022-10-16T09:00:53;125101.11;;;-140.43;32.44
30714;BME280;17465;47.934;33.430;2022-10-16T09:06:19;125101.11;;;-140.43;31.95
30714;BME280;17465;47.934;33.430;2022-10-16T09:11:33;125101.11;;;-140.43;31.53
30714;BME280;17465;47.934;33.430;2022-10-16T09:17:00;125101.11;;;-140.43;31.37
30714;BME280;17465;47.934;33.430;2022-10-16T09:19:36;125101.11;;;-140.43;31.37
30714;BME280;17465;47.934;33.430;2022-10-16T09:22:14;125101.11;;;-140.43;31.99
30714;BME280;17465;47.934;33.430;2022-10-16T09:24:45;125101.11;;;-140.43;32.26
30714;BME280;17465;47.934;33.430;2022-10-16T09:27:16;125101.11;;;-140.43;32.70
30714;BME280;17465;47.934;33.430;2022-10-16T09:29:46;125101.11;;;-140.43;32.49
30714;BME280;17465;47.934;33.430;2022-10-16T09:32:23;125101.11;;;-140.43;32.49
30714;BME280;17465;47.934;33.430;2022-10-16T09:34:59;125101.11;;;-140.43;34.37
30714;BME280;17465;47.934;33.430;2022-10-16T09:37:31;125101.11;;;-140.43;32.59
30714;BME280;17465;47.934;33.430;2022-10-16T09:40:03;125101.11;;;-140.43;32.91
30714;BME280;17465;47.934;33.430;2022-10-16T09:42:37;125101.11;;;-140.43;32.91
30714;BME280;17465;47.934;33.430;2022-10-16T09:45:19;125101.11;;;-140.43;33.54
30714;BME280;17465;47.934;33.430;2022-10-16T09:47:45;125101.11;;;-140.43;33.54
30714;BME280;17465;47.934;33.430;2022-10-16T09:50:27;125101.11;;;-140.43;34.29
30714;BME280;17465;47.934;33.430;2022-10-16T09:53:10;125101.11;;;-140.43;35.26
30714;BME280;17465;47.934;33.430;2022-10-16T09:55:53;125101.11;;;-140.43;34.06
30714;BME280;17465;47.934;33.430;2022-10-16T09:58:23;125101.11;;;-140.43;34.25
30714;BME280;17465;47.934;33.430;2022-10-16T10:00:55;125101.11;;;-140.43;34.31
30714;BME280;17465;47.934;33.430;2022-10-16T10:03:34;125101.11;;;-140.43;34.27
30714;BME280;17465;47.934;33.430;2022-10-16T10:06:23;125101.11;;;-140.43;34.56
30714;BME280;17465;47.934;33.430;2022-10-16T10:09:05;125101.11;;;-140.43;34.14
30714;BME280;17465;47.934;33.430;2022-10-16T10:14:22;125101.11;;;-140.43;34.54
30714;BME280;17465;47.934;33.430;2022-10-16T10:16:43;125101.11;;;-140.43;35.07
30714;BME280;17465;47.934;33.430;2022-10-16T10:19:22;125101.11;;;-140.43;35.78
30714;BME280;17465;47.934;33.430;2022-10-16T10:21:59;125101.11;;;-140.43;35.78
30714;BME280;17465;47.934;33.430;2022-10-16T10:24:29;125101.11;;;-140.43;34.40
30714;BME280;17465;47.934;33.430;2022-10-16T10:27:12;125101.11;;;-140.43;35.16
30714;BME280;17465;47.934;33.430;2022-10-16T10:30:14;125101.11;;;-140.43;35.16
30714;BME280;17465;47.934;33.430;2022-10-16T10:35:17;125101.11;;;-140.43;32.98
30714;BME280;17465;47.934;33.430;2022-10-16T10:38:02;125101.11;;;-140.43;32.98
30714;BME280;17465;47.934;33.430;2022-10-16T10:40:51;125101.11;;;-140.43;32.25
30714;BME280;17465;47.934;33.430;2022-10-16T10:44:03;125101.11;;;-140.43;32.05
30714;BME280;17465;47.934;33.430;2022-10-16T10:46:06;125101.11;;;-140.43;32.46
30714;BME280;17465;47.934;33.430;2022-10-16T10:49:05;125101.11;;;-140.43;32.86
30714;BME280;17465;47.934;33.430;2022-10-16T11:00:52;125101.11;;;-140.43;33.22
30714;BME280;17465;47.934;33.430;2022-10-16T11:03:35;125101.11;;;-140.43;34.86
30714;BME280;17465;47.934;33.430;2022-10-16T11:06:06;125101.11;;;-140.43;33.82
30714;BME280;17465;47.934;33.430;2022-10-16T11:08:48;125101.11;;;-140.43;33.82
30714;BME280;17465;47.934;33.430;2022-10-16T11:16:58;125101.11;;;-140.43;33.61
30714;BME280;17465;47.934;33.430;2022-10-16T11:22:35;125101.11;;;-140.43;31.89
30714;BME280;17465;47.934;33.430;2022-10-16T11:25:18;125101.11;;;-140.43;31.38
30714;BME280;17465;47.934;33.430;2022-10-16T11:31:26;125101.11;;;-140.43;32.19
30714;BME280;17465;47.934;33.430;2022-10-16T11:33:41;125101.11;;;-140.43;31.91
30714;BME280;17465;47.934;33.430;2022-10-16T11:36:17;125101.11;;;-140.43;32.11
30714;BME280;17465;47.934;33.430;2022-10-16T11:39:04;125101.11;;;-140.43;32.45
30714;BME280;17465;47.934;33.430;2022-10-16T11:41:47;125101.11;;;-140.43;31.90
30714;BME280;17465;47.934;33.430;2022-10-16T11:49:50;125101.11;;;-140.43;31.63
30714;BME280;17465;47.934;33.430;2022-10-16T11:52:29;125101.11;;;-140.43;30.89
30714;BME280;17465;47.934;33.430;2022-10-16T11:55:05;125101.11;;;-140.43;30.89
30714;BME280;17465;47.934;33.430;2022-10-16T11:57:57;125101.11;;;-140.43;30.19
30714;BME280;17465;47.934;33.430;2022-10-16T12:00:45;125101.11;;;-140.43;29.59
30714;BME280;17465;47.934;33.430;2022-10-16T12:03:31;125101.11;;;-140.43;30.00
30714;BME280;17465;47.934;33.430;2022-10-16T12:08:38;125101.11;;;-140.43;28.08
30714;BME280;17465;47.934;33.430;2022-10-16T12:11:45;125101.11;;;-140.43;27.67
30714;BME280;17465;47.934;33.430;2022-10-16T12:13:49;125101.11;;;-140.43;27.47
30714;BME280;17465;47.934;33.430;2022-10-16T12:16:22;125101.11;;;-140.43;27.47
30714;BME280;17465;47.934;33.430;2022-10-16T12:19:17;125101.11;;;-140.43;27.73
30714;BME280;17465;47.934;33.430;2022-10-16T12:21:52;125101.11;;;-140.43;27.73
30714;BME280;17465;47.934;33.430;2022-10-16T12:24:42;125101.11;;;-140.43;27.43
30714;BME280;17465;47.934;33.430;2022-10-16T12:30:20;125101.11;;;-140.43;27.80
30714;BME280;17465;47.934;33.430;2022-10-16T12:33:02;125101.11;;;-140.43;28.11
30714;BME280;17465;47.934;33.430;2022-10-16T12:35:43;125101.11;;;-140.43;28.11
30714;BME280;17465;47.934;33.430;2022-10-16T12:38:17;125101.11;;;-140.43;28.44
30714;BME280;17465;47.934;33.430;2022-10-16T12:41:03;125101.11;;;-140.43;29.01
30714;BME280;17465;47.934;33.430;2022-10-16T12:43:42;125101.11;;;-140.43;28.81
30714;BME280;17465;47.934;33.430;2022-10-16T12:48:52;125101.11;;;-140.43;29.37
30714;BME280;17465;47.934;33.430;2022-10-16T12:54:22;125101.11;;;-140.43;30.14
30714;BME280;17465;47.934;33.430;2022-10-16T13:00:11;125101.11;;;-140.43;31.00
30714;BME280;17465;47.934;33.430;2022-10-16T13:08:34;125101.11;;;-140.43;33.26
30714;BME280;17465;47.934;33.430;2022-10-16T13:28:00;125101.11;;;-140.43;36.52
30714;BME280;17465;47.934;33.430;2022-10-16T13:30:38;125101.11;;;-140.43;35.90
30714;BME280;17465;47.934;33.430;2022-10-16T13:33:17;125101.11;;;-140.43;35.90
30714;BME280;17465;47.934;33.430;2022-10-16T13:35:53;125101.11;;;-140.43;35.66
30714;BME280;17465;47.934;33.430;2022-10-16T13:38:30;125101.11;;;-140.43;35.66
30714;BME280;17465;47.934;33.430;2022-10-16T13:41:03;125101.11;;;-140.43;35.72
30714;BME280;17465;47.934;33.430;2022-10-16T13:43:50;125101.11;;;-140.43;36.96
30714;BME280;17465;47.934;33.430;2022-10-16T13:46:24;125101.11;;;-140.43;35.75
30714;BME280;17465;47.934;33.430;2022-10-16T13:49:05;125101.11;;;-140.43;36.55
30714;BME280;17465;47.934;33.430;2022-10-16T13:51:37;125101.11;;;-140.43;37.10
30714;BME280;17465;47.934;33.430;2022-10-16T13:54:09;125101.11;;;-140.43;37.10
30714;BME280;17465;47.934;33.430;2022-10-16T13:56:40;125101.11;;;-140.43;37.37
30714;BME280;17465;47.934;33.430;2022-10-16T13:59:34;125101.11;;;-140.43;36.62
30714;BME280;17465;47.934;33.430;2022-10-16T14:01:57;125101.11;;;-140.43;36.62
30714;BME280;17465;47.934;33.430;2022-10-16T14:04:32;125101.11;;;-140.43;36.93
30714;BME280;17465;47.934;33.430;2022-10-16T14:07:03;125101.11;;;-140.43;36.93
30714;BME280;17465;47.934;33.430;2022-10-16T14:09:33;125101.11;;;-140.43;37.58
30714;BME280;17465;47.934;33.430;2022-10-16T14:12:10;125101.11;;;-140.43;38.50
30714;BME280;17465;47.934;33.430;2022-10-16T14:14:48;125101.11;;;-140.43;37.19
30714;BME280;17465;47.934;33.430;2022-10-16T14:17:35;125101.11;;;-140.43;37.55
30714;BME280;17465;47.934;33.430;2022-10-16T14:20:12;125101.11;;;-140.43;37.85
30714;BME280;17465;47.934;33.430;2022-10-16T14:22:41;125101.11;;;-140.43;38.63
30714;BME280;17465;47.934;33.430;2022-10-16T14:30:35;125101.11;;;-140.43;39.36
30714;BME280;17465;47.934;33.430;2022-10-16T14:33:20;125101.11;;;-140.43;39.35
30714;BME280;17465;47.934;33.430;2022-10-16T14:38:21;125101.11;;;-140.43;39.01
30714;BME280;17465;47.934;33.430;2022-10-16T14:40:52;125101.11;;;-140.43;40.01
30714;BME280;17465;47.934;33.430;2022-10-16T14:43:30;125101.11;;;-140.43;40.13
30714;BME280;17465;47.934;33.430;2022-10-16T14:45:58;125101.11;;;-140.43;39.75
30714;BME280;17465;47.934;33.430;2022-10-16T14:48:29;125101.11;;;-140.43;39.51